createdAt,value
2023-04-07T00:00:26.885Z,96287.75
2023-04-07T00:02:54.050Z,96285.59
2023-04-07T00:05:20.981Z,96286.19
2023-04-07T00:07:55.918Z,96286.59
2023-04-07T00:10:24.181Z,96289.09
2023-04-07T00:12:50.873Z,96290.78
2023-04-07T00:15:17.588Z,96280.47
2023-04-07T00:17:44.337Z,96280.25
2023-04-07T00:20:12.429Z,96274.44
2023-04-07T00:22:39.069Z,96280.19
2023-04-07T00:25:06.326Z,96276.19
2023-04-07T00:27:32.949Z,96269.13
2023-04-07T00:29:59.579Z,96268.09
2023-04-07T00:32:26.269Z,96270.75
2023-04-07T00:34:52.931Z,96272.56
2023-04-07T00:37:19.603Z,96272.06
2023-04-07T00:39:46.881Z,96261.34
2023-04-07T00:42:13.659Z,96258.75
2023-04-07T00:44:40.591Z,96254.94
2023-04-07T00:47:07.280Z,96255.53
2023-04-07T00:49:34.177Z,96254.53
2023-04-07T00:52:01.391Z,96260.19
2023-04-07T00:54:30.356Z,96248.25
2023-04-07T00:56:57.633Z,96247.50
2023-04-07T00:59:25.297Z,96256.34
2023-04-07T01:02:13.569Z,96247.94
2023-04-07T01:04:54.675Z,96251.06
2023-04-07T01:07:34.895Z,96243.59
2023-04-07T01:10:06.645Z,96241.69
2023-04-07T01:12:42.003Z,96235.88
2023-04-07T01:15:11.315Z,96241.13
2023-04-07T01:17:45.603Z,96239.91
2023-04-07T01:20:19.713Z,96235.78
2023-04-07T01:22:51.348Z,96222.69
2023-04-07T01:25:34.484Z,96229.13
2023-04-07T01:28:01.514Z,96225.09
2023-04-07T01:30:33.435Z,96232.31
2023-04-07T01:33:01.821Z,96228.19
2023-04-07T01:35:32.465Z,96229.28
2023-04-07T01:38:00.492Z,96227.75
2023-04-07T01:40:29.333Z,96229.06
2023-04-07T01:42:58.038Z,96224.38
2023-04-07T01:45:26.701Z,96219.56
2023-04-07T01:47:54.872Z,96216.69
2023-04-07T01:50:22.378Z,96216.91
2023-04-07T01:52:49.643Z,96224.31
2023-04-07T01:55:16.545Z,96219.88
2023-04-07T01:57:43.204Z,96207.69
2023-04-07T02:00:10.305Z,96204.66
2023-04-07T02:02:40.998Z,96215.88
2023-04-07T02:05:12.668Z,96211.78
2023-04-07T02:08:03.937Z,96213.31
2023-04-07T02:10:35.692Z,96207.47
2023-04-07T02:13:05.445Z,96202.69
2023-04-07T02:15:32.323Z,96204.00
2023-04-07T02:18:00.942Z,96201.25
2023-04-07T02:20:29.694Z,96202.63
2023-04-07T02:22:56.569Z,96196.09
2023-04-07T02:25:30.417Z,96202.19
2023-04-07T02:27:58.887Z,96197.44
2023-04-07T02:30:26.413Z,96198.16
2023-04-07T02:32:53.809Z,96205.13
2023-04-07T02:35:21.156Z,96198.25
2023-04-07T02:37:47.930Z,96193.50
2023-04-07T02:40:14.678Z,96192.94
2023-04-07T02:42:41.748Z,96197.81
2023-04-07T02:45:09.785Z,96191.97
2023-04-07T02:47:37.720Z,96195.09
2023-04-07T02:50:05.005Z,96182.09
2023-04-07T02:52:31.683Z,96188.53
2023-04-07T02:54:58.320Z,96190.91
2023-04-07T02:57:24.973Z,96183.25
2023-04-07T02:59:51.628Z,96182.28
2023-04-07T03:02:18.307Z,96177.91
2023-04-07T03:04:44.948Z,96184.94
2023-04-07T03:07:11.538Z,96181.53
2023-04-07T03:09:38.143Z,96174.31
2023-04-07T03:12:04.833Z,96184.25
2023-04-07T03:14:31.574Z,96175.09
2023-04-07T03:16:58.171Z,96168.97
2023-04-07T03:19:24.850Z,96170.13
2023-04-07T03:21:51.731Z,96172.69
2023-04-07T03:24:18.590Z,96166.78
2023-04-07T03:26:45.273Z,96162.31
2023-04-07T03:29:11.938Z,96158.94
2023-04-07T03:31:38.593Z,96161.34
2023-04-07T03:34:05.459Z,96158.34
2023-04-07T03:36:32.121Z,96153.69
2023-04-07T03:38:58.797Z,96161.06
2023-04-07T03:41:25.543Z,96161.16
2023-04-07T03:43:52.469Z,96146.09
2023-04-07T03:46:22.439Z,96149.63
2023-04-07T03:48:49.146Z,96153.78
2023-04-07T03:51:16.222Z,96153.09
2023-04-07T03:53:42.897Z,96151.81
2023-04-07T03:56:09.847Z,96157.31
2023-04-07T03:58:36.540Z,96154.00
2023-04-07T04:01:03.475Z,96142.53
2023-04-07T04:03:30.434Z,96147.53
2023-04-07T04:05:57.178Z,96149.25
2023-04-07T04:08:24.140Z,96150.88
2023-04-07T04:10:51.334Z,96138.78
2023-04-07T04:13:17.965Z,96140.94
2023-04-07T04:15:44.580Z,96141.59
2023-04-07T04:18:11.659Z,96144.34
2023-04-07T04:20:38.364Z,96143.22
2023-04-07T04:23:05.046Z,96144.06
2023-04-07T04:25:31.703Z,96138.25
2023-04-07T04:27:58.285Z,96138.41
2023-04-07T04:30:24.910Z,96140.41
2023-04-07T04:32:51.770Z,96141.06
2023-04-07T04:35:18.465Z,96146.25
2023-04-07T04:37:45.123Z,96147.81
2023-04-07T04:40:12.172Z,96139.56
2023-04-07T04:42:38.800Z,96141.66
2023-04-07T04:45:06.118Z,96145.22
2023-04-07T04:47:32.739Z,96140.22
2023-04-07T04:49:59.555Z,96144.88
2023-04-07T04:52:27.338Z,96150.91
2023-04-07T04:54:54.024Z,96135.88
2023-04-07T04:57:20.636Z,96129.91
2023-04-07T04:59:47.375Z,96139.56
2023-04-07T05:02:14.072Z,96136.06
2023-04-07T05:04:41.132Z,96142.63
2023-04-07T05:07:07.794Z,96132.19
2023-04-07T05:09:34.450Z,96137.50
2023-04-07T05:12:02.612Z,96151.66
2023-04-07T05:14:29.298Z,96154.22
2023-04-07T05:16:55.971Z,96154.38
2023-04-07T05:19:22.702Z,96145.50
2023-04-07T05:21:49.300Z,96141.63
2023-04-07T05:24:15.937Z,96137.63
2023-04-07T05:26:42.521Z,96128.13
2023-04-07T05:29:09.147Z,96126.19
2023-04-07T05:31:37.485Z,96133.34
2023-04-07T05:34:04.198Z,96134.31
2023-04-07T05:36:31.828Z,96137.03
2023-04-07T05:38:58.505Z,96133.94
2023-04-07T05:41:25.157Z,96143.31
2023-04-07T05:43:52.121Z,96144.13
2023-04-07T05:46:19.121Z,96137.53
2023-04-07T05:48:45.908Z,96129.47
2023-04-07T05:51:12.499Z,96130.16
2023-04-07T05:53:39.155Z,96133.38
2023-04-07T05:56:06.179Z,96136.53
2023-04-07T05:58:33.030Z,96135.00
2023-04-07T06:00:59.664Z,96134.75
2023-04-07T06:03:26.563Z,96130.53
2023-04-07T06:05:53.365Z,96122.81
2023-04-07T06:08:20.072Z,96128.88
2023-04-07T06:10:46.844Z,96131.84
2023-04-07T06:13:13.452Z,96125.28
2023-04-07T06:15:40.158Z,96132.66
2023-04-07T06:18:06.989Z,96127.47
2023-04-07T06:20:33.672Z,96119.13
2023-04-07T06:23:00.254Z,96120.44
2023-04-07T06:25:26.933Z,96118.44
2023-04-07T06:27:54.964Z,96119.25
2023-04-07T06:30:21.686Z,96122.19
2023-04-07T06:32:48.368Z,96120.75
2023-04-07T06:35:15.020Z,96117.06
2023-04-07T06:37:41.716Z,96127.91
2023-04-07T06:40:08.868Z,96119.25
2023-04-07T06:42:35.504Z,96119.28
2023-04-07T06:45:02.212Z,96121.13
2023-04-07T06:47:29.359Z,96121.41
2023-04-07T06:49:56.117Z,96116.59
2023-04-07T06:52:22.928Z,96122.97
2023-04-07T06:54:49.594Z,96118.72
2023-04-07T06:57:16.306Z,96118.66
2023-04-07T06:59:43.111Z,96121.13
2023-04-07T07:02:09.962Z,96120.88
2023-04-07T07:04:37.028Z,96127.25
2023-04-07T07:07:03.960Z,96125.16
2023-04-07T07:09:30.651Z,96117.34
2023-04-07T07:11:57.734Z,96126.06
2023-04-07T07:14:24.413Z,96117.34
2023-04-07T07:16:51.116Z,96113.53
2023-04-07T07:19:17.783Z,96115.13
2023-04-07T07:21:44.666Z,96118.53
2023-04-07T07:24:11.463Z,96119.31
2023-04-07T07:26:38.068Z,96114.84
2023-04-07T07:29:04.691Z,96110.25
2023-04-07T07:31:31.650Z,96112.84
2023-04-07T07:33:58.486Z,96105.78
2023-04-07T07:36:25.230Z,96107.50
2023-04-07T07:38:51.997Z,96106.34
2023-04-07T07:41:18.854Z,96099.56
2023-04-07T07:43:46.058Z,96101.56
2023-04-07T07:46:12.960Z,96094.50
2023-04-07T07:48:39.697Z,96100.53
2023-04-07T07:51:06.684Z,96092.97
2023-04-07T07:53:33.326Z,96096.53
2023-04-07T07:56:00.171Z,96089.81
2023-04-07T07:58:26.929Z,96092.97
2023-04-07T08:00:53.714Z,96092.66
2023-04-07T08:03:23.006Z,96091.06
2023-04-07T08:05:49.806Z,96086.84
2023-04-07T08:08:16.476Z,96091.75
2023-04-07T08:10:43.149Z,96083.16
2023-04-07T08:13:09.828Z,96076.91
2023-04-07T08:15:36.525Z,96073.69
2023-04-07T08:18:04.896Z,96075.50
2023-04-07T08:20:32.498Z,96075.09
2023-04-07T08:23:02.204Z,96077.31
2023-04-07T08:25:29.595Z,96081.28
2023-04-07T08:27:56.622Z,96084.84
2023-04-07T08:30:23.733Z,96082.81
2023-04-07T08:32:50.485Z,96081.41
2023-04-07T08:35:17.148Z,96077.53
2023-04-07T08:37:44.554Z,96073.66
2023-04-07T08:40:12.520Z,96080.41
2023-04-07T08:42:42.382Z,96070.28
2023-04-07T08:45:10.081Z,96078.34
2023-04-07T08:47:37.819Z,96076.75
2023-04-07T08:50:09.642Z,96067.66
2023-04-07T08:52:50.842Z,96063.47
2023-04-07T08:55:17.519Z,96063.84
2023-04-07T08:57:44.210Z,96061.19
2023-04-07T09:00:11.736Z,96054.69
2023-04-07T09:02:47.941Z,96060.81
2023-04-07T09:05:14.955Z,96056.59
2023-04-07T09:07:43.369Z,96050.41
2023-04-07T09:10:10.500Z,96052.00
2023-04-07T09:12:37.845Z,96039.25
2023-04-07T09:15:07.044Z,96043.72
2023-04-07T09:17:33.735Z,96035.91
2023-04-07T09:20:01.149Z,96032.31
2023-04-07T09:22:47.316Z,96037.19
2023-04-07T09:25:26.461Z,96030.31
2023-04-07T09:28:01.452Z,96032.69
2023-04-07T09:30:29.682Z,96025.66
2023-04-07T09:32:57.512Z,96020.03
2023-04-07T09:35:24.865Z,96024.59
2023-04-07T09:38:09.781Z,96018.72
2023-04-07T09:40:37.569Z,96026.06
2023-04-07T09:43:06.961Z,96019.63
2023-04-07T09:45:36.794Z,96019.25
2023-04-07T09:48:08.885Z,96014.22
2023-04-07T09:50:41.477Z,96009.72
2023-04-07T09:53:08.326Z,96009.38
2023-04-07T09:55:36.338Z,96008.50
2023-04-07T09:58:04.875Z,96009.03
2023-04-07T10:00:32.093Z,96004.78
2023-04-07T10:02:59.072Z,95992.63
2023-04-07T10:05:26.522Z,95995.03
2023-04-07T10:07:53.190Z,95982.84
2023-04-07T10:10:19.990Z,95982.84
2023-04-07T10:12:48.820Z,95982.38
2023-04-07T10:15:16.362Z,95973.22
2023-04-07T10:17:48.432Z,95973.53
2023-04-07T10:20:18.700Z,95971.00
2023-04-07T10:22:46.903Z,95968.63
2023-04-07T10:25:16.695Z,95967.25
2023-04-07T10:28:00.758Z,95968.06
2023-04-07T10:30:30.527Z,95965.47
2023-04-07T10:32:58.016Z,95968.22
2023-04-07T10:35:25.369Z,95962.41
2023-04-07T10:38:13.778Z,95954.81
2023-04-07T10:40:41.795Z,95962.75
2023-04-07T10:43:12.580Z,95957.41
2023-04-07T10:45:56.182Z,95958.13
2023-04-07T10:48:23.444Z,95955.81
2023-04-07T10:51:05.284Z,95948.72
2023-04-07T10:53:32.316Z,95938.59
2023-04-07T10:55:59.449Z,95939.41
2023-04-07T10:58:33.403Z,95952.97
2023-04-07T11:00:59.955Z,95936.75
2023-04-07T11:03:28.730Z,95935.38
2023-04-07T11:06:14.526Z,95926.66
2023-04-07T11:08:49.023Z,95920.44
2023-04-07T11:11:19.773Z,95928.50
2023-04-07T11:13:51.655Z,95928.47
2023-04-07T11:16:20.238Z,95915.56
2023-04-07T11:18:50.967Z,95915.00
2023-04-07T11:21:20.448Z,95906.28
2023-04-07T11:23:48.388Z,95904.72
2023-04-07T11:26:16.201Z,95887.38
2023-04-07T11:28:51.461Z,95896.69
2023-04-07T11:31:26.017Z,95898.16
2023-04-07T11:33:55.153Z,95888.66
2023-04-07T11:36:39.178Z,95899.31
2023-04-07T11:39:06.137Z,95888.47
2023-04-07T11:41:33.862Z,95893.09
2023-04-07T11:44:11.760Z,95888.16
2023-04-07T11:47:00.416Z,95887.97
2023-04-07T11:49:28.676Z,95883.13
2023-04-07T11:52:03.857Z,95873.03
2023-04-07T11:54:50.873Z,95870.88
2023-04-07T11:57:28.839Z,95865.75
2023-04-07T12:00:09.794Z,95864.34
2023-04-07T12:02:37.237Z,95866.47
2023-04-07T12:05:05.888Z,95861.94
2023-04-07T12:07:33.317Z,95864.72
2023-04-07T12:10:18.786Z,95855.00
2023-04-07T12:12:47.100Z,95854.03
2023-04-07T12:15:14.041Z,95860.63
2023-04-07T12:17:45.926Z,95851.72
2023-04-07T12:20:12.848Z,95848.47
2023-04-07T12:22:39.503Z,95842.47
2023-04-07T12:25:06.480Z,95845.22
2023-04-07T12:27:42.154Z,95846.25
2023-04-07T12:30:10.175Z,95844.34
2023-04-07T12:32:37.966Z,95845.91
2023-04-07T12:35:05.515Z,95838.19
2023-04-07T12:37:33.085Z,95839.59
2023-04-07T12:40:00.607Z,95841.19
2023-04-07T12:42:27.665Z,95837.03
2023-04-07T12:44:54.245Z,95840.09
2023-04-07T12:47:20.947Z,95839.75
2023-04-07T12:49:49.861Z,95842.28
2023-04-07T12:52:16.984Z,95836.78
2023-04-07T12:54:44.530Z,95837.34
2023-04-07T12:57:11.448Z,95836.19
2023-04-07T12:59:38.072Z,95839.09
2023-04-07T13:02:05.035Z,95845.44
2023-04-07T13:04:32.194Z,95844.06
2023-04-07T13:06:59.698Z,95839.94
2023-04-07T13:09:26.410Z,95845.09
2023-04-07T13:11:53.178Z,95846.09
2023-04-07T13:14:19.775Z,95855.69
2023-04-07T13:16:46.462Z,95836.16
2023-04-07T13:19:13.205Z,95851.13
2023-04-07T13:24:09.482Z,95848.91
2023-04-07T13:26:36.279Z,95854.75
2023-04-07T13:29:02.908Z,95847.19
2023-04-07T13:31:30.487Z,95846.75
2023-04-07T13:33:57.075Z,95841.28
2023-04-07T13:36:24.889Z,95836.19
2023-04-07T13:38:51.474Z,95839.66
2023-04-07T13:41:18.099Z,95838.19
2023-04-07T13:43:44.738Z,95838.81
2023-04-07T13:46:27.428Z,95835.69
2023-04-07T13:48:55.448Z,95832.69
2023-04-07T13:51:22.131Z,95836.09
2023-04-07T13:53:48.991Z,95828.84
2023-04-07T13:56:15.938Z,95832.19
2023-04-07T13:58:42.609Z,95830.41
2023-04-07T14:01:09.303Z,95834.09
2023-04-07T14:03:36.115Z,95836.06
2023-04-07T14:06:03.123Z,95829.53
2023-04-07T14:08:29.817Z,95829.75
2023-04-07T14:10:56.516Z,95833.72
2023-04-07T14:13:23.205Z,95839.16
2023-04-07T14:15:50.407Z,95841.72
2023-04-07T14:18:17.661Z,95837.75
2023-04-07T14:20:44.616Z,95834.13
2023-04-07T14:23:11.668Z,95840.34
2023-04-07T14:25:38.422Z,95838.06
2023-04-07T14:28:05.092Z,95840.00
2023-04-07T14:30:31.958Z,95839.22
2023-04-07T14:32:58.675Z,95840.47
2023-04-07T14:35:25.584Z,95838.44
2023-04-07T14:37:52.613Z,95840.44
2023-04-07T14:40:21.397Z,95842.66
2023-04-07T14:42:48.983Z,95841.63
2023-04-07T14:45:15.718Z,95848.13
2023-04-07T14:47:42.505Z,95845.66
2023-04-07T14:50:09.473Z,95840.72
2023-04-07T14:52:36.158Z,95844.28
2023-04-07T14:55:02.907Z,95855.44
2023-04-07T14:57:30.791Z,95851.16
2023-04-07T14:59:57.489Z,95857.13
2023-04-07T15:02:24.466Z,95849.59
2023-04-07T15:04:51.351Z,95861.31
2023-04-07T15:07:18.070Z,95859.97
2023-04-07T15:09:44.711Z,95853.66
2023-04-07T15:12:11.360Z,95856.56
2023-04-07T15:14:37.984Z,95863.56
2023-04-07T15:17:04.705Z,95866.06
2023-04-07T15:19:31.332Z,95860.44
2023-04-07T15:21:57.983Z,95866.94
2023-04-07T15:24:24.580Z,95869.88
2023-04-07T15:26:51.302Z,95868.41
2023-04-07T15:29:17.955Z,95870.09
2023-04-07T15:31:44.658Z,95871.47
2023-04-07T15:34:11.354Z,95878.34
2023-04-07T15:36:37.949Z,95877.47
2023-04-07T15:39:06.591Z,95865.31
2023-04-07T15:41:33.836Z,95874.22
2023-04-07T15:44:01.227Z,95872.75
2023-04-07T15:46:27.870Z,95882.69
2023-04-07T15:48:54.866Z,95877.28
2023-04-07T15:51:21.622Z,95877.28
2023-04-07T15:53:48.497Z,95871.69
2023-04-07T15:56:15.416Z,95874.66
2023-04-07T15:58:42.075Z,95882.97
2023-04-07T16:01:08.811Z,95878.59
2023-04-07T16:03:35.635Z,95878.25
2023-04-07T16:06:02.282Z,95881.97
2023-04-07T16:08:28.915Z,95881.19
2023-04-07T16:10:55.565Z,95886.84
2023-04-07T16:13:22.192Z,95884.91
2023-04-07T16:15:48.851Z,95883.56
2023-04-07T16:18:15.527Z,95879.25
2023-04-07T16:20:42.220Z,95879.16
2023-04-07T16:23:09.317Z,95877.44
2023-04-07T16:25:36.139Z,95885.47
2023-04-07T16:28:02.818Z,95880.94
2023-04-07T16:30:29.428Z,95887.53
2023-04-07T16:32:56.169Z,95885.34
2023-04-07T16:35:23.043Z,95885.81
2023-04-07T16:37:50.445Z,95892.94
2023-04-07T16:40:17.148Z,95889.53
2023-04-07T16:42:43.854Z,95890.63
2023-04-07T16:45:11.209Z,95898.78
2023-04-07T16:47:37.936Z,95895.53
2023-04-07T16:50:05.184Z,95901.06
2023-04-07T16:52:32.134Z,95909.53
2023-04-07T16:55:00.575Z,95907.84
2023-04-07T16:57:27.380Z,95906.34
2023-04-07T16:59:54.224Z,95910.53
2023-04-07T17:02:21.073Z,95906.91
2023-04-07T17:04:47.917Z,95908.03
2023-04-07T17:07:14.518Z,95911.22
2023-04-07T17:09:41.378Z,95915.28
2023-04-07T17:12:07.988Z,95919.06
2023-04-07T17:14:34.935Z,95921.50
2023-04-07T17:17:01.933Z,95920.25
2023-04-07T17:19:28.948Z,95928.25
2023-04-07T17:21:55.609Z,95925.63
2023-04-07T17:24:22.866Z,95930.47
2023-04-07T17:26:49.595Z,95930.16
2023-04-07T17:29:17.319Z,95926.09
2023-04-07T17:31:44.417Z,95935.78
2023-04-07T17:34:11.974Z,95936.25
2023-04-07T17:36:38.917Z,95945.06
2023-04-07T17:39:05.593Z,95934.41
2023-04-07T17:41:35.247Z,95945.25
2023-04-07T17:44:02.247Z,95949.63
2023-04-07T17:46:29.433Z,95943.50
2023-04-07T17:48:59.416Z,95948.44
2023-04-07T17:51:27.175Z,95958.84
2023-04-07T17:53:54.741Z,95959.31
2023-04-07T17:56:22.254Z,95966.31
2023-04-07T17:58:49.063Z,95963.47
2023-04-07T18:01:17.073Z,95964.19
2023-04-07T18:03:43.917Z,95972.47
2023-04-07T18:06:15.168Z,95978.13
2023-04-07T18:08:42.102Z,95979.59
2023-04-07T18:11:08.918Z,95989.06
2023-04-07T18:13:35.771Z,95997.03
2023-04-07T18:16:02.794Z,95989.09
2023-04-07T18:18:29.461Z,95994.66
2023-04-07T18:20:56.052Z,95992.53
2023-04-07T18:23:22.744Z,95993.53
2023-04-07T18:25:49.650Z,96002.34
2023-04-07T18:28:17.215Z,96009.69
2023-04-07T18:30:44.002Z,96005.09
2023-04-07T18:33:10.738Z,96007.84
2023-04-07T18:35:37.782Z,96014.34
2023-04-07T18:38:04.879Z,96016.88
2023-04-07T18:40:33.511Z,96017.69
2023-04-07T18:43:00.242Z,96020.88
2023-04-07T18:45:26.977Z,96025.03
2023-04-07T18:47:53.697Z,96014.84
2023-04-07T18:50:20.391Z,96019.63
2023-04-07T18:52:46.974Z,96025.03
2023-04-07T18:55:14.106Z,96032.63
2023-04-07T18:57:40.721Z,96028.34
2023-04-07T19:00:08.587Z,96032.16
2023-04-07T19:02:35.719Z,96033.91
2023-04-07T19:05:02.493Z,96036.72
2023-04-07T19:07:29.160Z,96040.06
2023-04-07T19:09:56.053Z,96039.25
2023-04-07T19:12:22.666Z,96035.75
2023-04-07T19:14:49.265Z,96043.53
2023-04-07T19:17:16.418Z,96037.50
2023-04-07T19:19:43.034Z,96044.63
2023-04-07T19:22:09.655Z,96059.22
2023-04-07T19:24:36.338Z,96049.53
2023-04-07T19:27:03.367Z,96046.81
2023-04-07T19:29:29.948Z,96056.47
2023-04-07T19:31:57.472Z,96054.88
2023-04-07T19:34:24.157Z,96067.41
2023-04-07T19:36:50.869Z,96061.03
2023-04-07T19:39:17.449Z,96066.91
2023-04-07T19:41:44.110Z,96069.91
2023-04-07T19:44:10.873Z,96078.00
2023-04-07T19:46:37.633Z,96077.53
2023-04-07T19:49:04.275Z,96079.19
2023-04-07T19:51:31.184Z,96077.44
2023-04-07T19:53:57.879Z,96073.47
2023-04-07T19:56:25.180Z,96074.88
2023-04-07T19:58:51.915Z,96077.09
2023-04-07T20:01:19.091Z,96080.34
2023-04-07T20:03:46.912Z,96074.50
2023-04-07T20:06:15.173Z,96077.81
2023-04-07T20:08:42.469Z,96078.59
2023-04-07T20:11:13.225Z,96076.03
2023-04-07T20:13:41.295Z,96079.53
2023-04-07T20:16:08.302Z,96079.63
2023-04-07T20:18:35.005Z,96075.59
2023-04-07T20:21:08.046Z,96080.09
2023-04-07T20:23:34.713Z,96074.75
2023-04-07T20:26:04.353Z,96082.53
2023-04-07T20:28:31.318Z,96084.59
2023-04-07T20:30:57.969Z,96089.84
2023-04-07T20:33:24.649Z,96089.84
2023-04-07T20:35:51.379Z,96091.19
2023-04-07T20:38:18.837Z,96095.47
2023-04-07T20:40:45.560Z,96088.13
2023-04-07T20:43:12.326Z,96092.72
2023-04-07T20:45:39.020Z,96102.91
2023-04-07T20:48:05.878Z,96100.22
2023-04-07T20:50:33.296Z,96105.91
2023-04-07T20:52:59.938Z,96105.44
2023-04-07T20:55:27.323Z,96097.88
2023-04-07T20:57:54.771Z,96098.28
2023-04-07T21:00:21.598Z,96097.59
2023-04-07T21:02:48.703Z,96102.28
2023-04-07T21:05:15.579Z,96109.47
2023-04-07T21:07:42.382Z,96101.59
2023-04-07T21:10:09.884Z,96104.59
2023-04-07T21:12:36.608Z,96103.41
2023-04-07T21:15:03.451Z,96105.09
2023-04-07T21:17:30.102Z,96102.09
2023-04-07T21:19:56.752Z,96105.19
2023-04-07T21:22:23.391Z,96106.69
2023-04-07T21:24:50.045Z,96100.88
2023-04-07T21:27:16.651Z,96100.00
2023-04-07T21:29:43.322Z,96105.69
2023-04-07T21:32:10.651Z,96109.13
2023-04-07T21:34:37.319Z,96101.59
2023-04-07T21:37:03.994Z,96098.09
2023-04-07T21:39:30.929Z,96101.69
2023-04-07T21:41:57.672Z,96098.88
2023-04-07T21:44:24.516Z,96097.78
2023-04-07T21:46:51.328Z,96096.72
2023-04-07T21:49:22.009Z,96094.00
2023-04-07T21:51:49.110Z,96086.19
2023-04-07T21:54:16.057Z,96093.81
2023-04-07T21:56:42.964Z,96099.13
2023-04-07T21:59:09.590Z,96094.34
2023-04-07T22:01:36.402Z,96097.91
2023-04-07T22:04:03.200Z,96092.31
2023-04-07T22:06:30.106Z,96094.97
2023-04-07T22:09:01.933Z,96098.13
2023-04-07T22:11:29.594Z,96095.03
2023-04-07T22:13:56.305Z,96098.72
2023-04-07T22:16:23.065Z,96098.13
2023-04-07T22:18:50.417Z,96100.75
2023-04-07T22:21:17.591Z,96096.31
2023-04-07T22:23:44.693Z,96103.22
2023-04-07T22:26:11.442Z,96103.78
2023-04-07T22:28:38.103Z,96107.19
2023-04-07T22:31:04.947Z,96108.69
2023-04-07T22:33:31.742Z,96112.03
2023-04-07T22:35:58.498Z,96112.53
2023-04-07T22:38:25.397Z,96113.59
2023-04-07T22:40:52.042Z,96104.97
2023-04-07T22:43:18.826Z,96111.91
2023-04-07T22:45:45.545Z,96117.16
2023-04-07T22:48:12.502Z,96116.00
2023-04-07T22:50:39.199Z,96107.59
2023-04-07T22:53:07.421Z,96108.94
2023-04-07T22:55:36.037Z,96105.47
2023-04-07T22:58:02.782Z,96114.09
2023-04-07T23:00:29.498Z,96112.53
2023-04-07T23:02:58.784Z,96111.91
2023-04-07T23:05:25.744Z,96113.59
2023-04-07T23:07:53.417Z,96114.88
2023-04-07T23:10:20.028Z,96112.75
2023-04-07T23:12:46.672Z,96116.81
2023-04-07T23:15:13.374Z,96118.75
2023-04-07T23:17:40.174Z,96115.59
2023-04-07T23:20:07.952Z,96122.72
2023-04-07T23:22:34.586Z,96118.72
2023-04-07T23:25:01.585Z,96128.78
2023-04-07T23:27:28.200Z,96122.38
2023-04-07T23:29:54.818Z,96129.25
2023-04-07T23:32:21.614Z,96126.13
2023-04-07T23:34:48.242Z,96127.72
2023-04-07T23:37:14.851Z,96122.88
2023-04-07T23:39:41.529Z,96123.91
2023-04-07T23:42:08.296Z,96122.22
2023-04-07T23:44:34.967Z,96124.69
2023-04-07T23:47:01.595Z,96121.75
2023-04-07T23:49:29.292Z,96122.78
2023-04-07T23:51:55.923Z,96127.69
2023-04-07T23:54:22.589Z,96123.44
2023-04-07T23:56:49.228Z,96122.78
2023-04-07T23:59:15.944Z,96121.72
